Time;durP1;ratioP1;P1;durP2;ratioP2;P2;SDS_P1;SDS_P2;PMS_P1;PMS_P2;Temp;Humidity;BMP_temperature;BMP_pressure;BME280_temperature;BME280_humidity;BME280_pressure;Samples;Min_cycle;Max_cycle;Signal;HPM_P1;HPM_P2
2022/04/23 00:01:11;;;;;;;19.27;16.88;;;11.80;99.90;;;;;;5140852;27;20246;-71
2022/04/23 00:03:43;;;;;;;18.67;16.70;;;11.80;99.90;;;;;;5126107;27;20182;-71
2022/04/23 00:06:10;;;;;;;17.08;15.45;;;11.80;99.90;;;;;;5123843;27;20569;-72
2022/04/23 00:08:39;;;;;;;17.95;16.08;;;11.80;99.90;;;;;;5122998;27;20619;-71
2022/04/23 00:11:05;;;;;;;17.77;15.98;;;11.80;99.90;;;;;;5141782;27;20608;-72
2022/04/23 00:13:32;;;;;;;19.63;17.65;;;11.80;99.90;;;;;;5138688;27;20202;-71
2022/04/23 00:16:07;;;;;;;17.52;15.68;;;11.90;99.90;;;;;;5140823;27;20214;-72
2022/04/23 00:19:23;;;;;;;22.23;17.05;;;11.80;99.90;;;;;;5143091;27;20280;-71
2022/04/23 00:21:50;;;;;;;19.35;16.15;;;11.90;99.90;;;;;;5140913;27;20223;-73
2022/04/23 00:24:20;;;;;;;18.50;16.63;;;11.90;99.90;;;;;;5138784;27;20520;-72
2022/04/23 00:26:46;;;;;;;18.00;16.20;;;11.90;99.90;;;;;;5138979;27;20202;-73
2022/04/23 00:29:12;;;;;;;21.10;17.15;;;12.00;99.90;;;;;;5138246;27;20205;-73
2022/04/23 00:31:38;;;;;;;17.60;15.75;;;12.00;99.90;;;;;;5139160;27;20221;-71
2022/04/23 00:34:05;;;;;;;19.25;16.95;;;12.00;99.90;;;;;;5120818;27;20201;-72
2022/04/23 00:36:32;;;;;;;17.83;15.93;;;12.00;99.90;;;;;;5140479;27;20241;-72
2022/04/23 00:38:59;;;;;;;17.77;15.98;;;12.00;99.90;;;;;;5137619;27;20189;-72
2022/04/23 00:41:45;;;;;;;20.60;16.08;;;11.90;99.90;;;;;;5119321;27;20201;-72
2022/04/23 00:44:12;;;;;;;19.15;17.17;;;12.00;99.90;;;;;;5122601;27;20209;-72
2022/04/23 00:46:38;;;;;;;20.33;18.23;;;12.00;99.90;;;;;;5138055;27;20574;-72
2022/04/23 00:49:06;;;;;;;19.05;16.90;;;12.00;99.90;;;;;;5138272;27;20267;-72
2022/04/23 00:51:33;;;;;;;19.02;17.13;;;12.00;99.90;;;;;;5138244;27;20254;-72
2022/04/23 00:54:04;;;;;;;18.95;17.00;;;12.00;99.90;;;;;;5138382;27;20202;-72
2022/04/23 00:56:32;;;;;;;20.73;16.92;;;11.90;99.90;;;;;;5137673;27;20222;-71
2022/04/23 00:58:58;;;;;;;20.98;18.42;;;11.80;99.90;;;;;;5119406;27;20661;-72
2022/04/23 01:01:25;;;;;;;18.52;16.55;;;11.80;99.90;;;;;;5136947;27;20661;-71
2022/04/23 01:03:53;;;;;;;19.30;17.30;;;11.80;99.90;;;;;;5136716;27;20194;-71
2022/04/23 01:06:20;;;;;;;19.05;17.05;;;11.80;99.90;;;;;;5137760;27;20222;-70
2022/04/23 01:08:47;;;;;;;19.95;17.80;;;11.80;99.90;;;;;;5136764;27;20749;-70
2022/04/23 01:11:13;;;;;;;19.77;17.63;;;11.70;99.90;;;;;;5137131;27;20566;-71
2022/04/23 01:13:43;;;;;;;19.75;17.67;;;11.80;99.90;;;;;;5137088;27;20212;-71
2022/04/23 01:16:09;;;;;;;21.48;17.30;;;11.80;99.90;;;;;;5136432;27;20278;-71
2022/04/23 01:18:41;;;;;;;24.27;17.17;;;11.80;99.90;;;;;;5136867;27;20254;-71
2022/04/23 01:21:13;;;;;;;20.98;18.02;;;11.80;99.90;;;;;;5136908;27;20190;-68
2022/04/23 01:23:42;;;;;;;20.52;18.38;;;11.80;99.90;;;;;;5137306;27;20192;-71
2022/04/23 01:26:09;;;;;;;20.15;18.05;;;11.70;99.90;;;;;;5136553;27;20237;-70
2022/04/23 01:28:37;;;;;;;25.25;19.80;;;11.60;99.90;;;;;;5136983;27;20206;-69
2022/04/23 01:31:04;;;;;;;20.00;17.95;;;11.70;99.90;;;;;;5136696;27;20202;-69
2022/04/23 01:33:32;;;;;;;22.65;19.17;;;11.60;99.90;;;;;;5136692;27;20209;-69
2022/04/23 01:35:59;;;;;;;27.15;18.27;;;11.60;99.90;;;;;;5136207;27;20210;-69
2022/04/23 01:38:25;;;;;;;23.48;18.10;;;11.60;99.90;;;;;;5136186;27;20202;-69
2022/04/23 01:40:52;;;;;;;22.13;18.40;;;11.40;99.90;;;;;;5136975;27;20201;-69
2022/04/23 01:43:18;;;;;;;23.55;19.40;;;11.40;99.90;;;;;;5136746;27;20202;-70
2022/04/23 01:45:45;;;;;;;21.00;16.60;;;11.40;99.90;;;;;;5136315;27;20716;-69
2022/04/23 01:48:11;;;;;;;22.77;19.20;;;11.30;99.90;;;;;;5118002;27;20216;-72
2022/04/23 01:50:38;;;;;;;19.33;17.40;;;11.20;99.90;;;;;;5136388;27;20208;-72
2022/04/23 01:53:05;;;;;;;21.83;19.52;;;11.20;99.90;;;;;;5135344;27;20649;-72
2022/04/23 01:55:31;;;;;;;22.48;19.95;;;11.10;99.90;;;;;;5117260;27;20704;-72
2022/04/23 01:57:58;;;;;;;20.83;18.65;;;11.10;99.90;;;;;;5135362;27;20204;-72
2022/04/23 02:00:25;;;;;;;21.80;19.48;;;11.00;99.90;;;;;;5135863;27;20680;-73
2022/04/23 02:02:51;;;;;;;22.35;19.38;;;10.90;99.90;;;;;;5135534;27;20198;-74
2022/04/23 02:05:17;;;;;;;25.13;19.98;;;10.90;99.90;;;;;;5136364;27;20218;-72
2022/04/23 02:07:45;;;;;;;22.65;19.55;;;10.80;99.90;;;;;;5135929;27;20697;-72
2022/04/23 02:10:14;;;;;;;23.42;19.25;;;10.80;99.90;;;;;;5135371;27;20233;-72
2022/04/23 02:12:41;;;;;;;19.33;17.45;;;10.70;99.90;;;;;;5117165;28;20206;-72
2022/04/23 02:15:13;;;;;;;26.23;19.75;;;10.70;99.90;;;;;;5116397;27;20194;-72
2022/04/23 02:17:42;;;;;;;21.33;19.13;;;10.60;99.90;;;;;;5135141;27;20690;-72
2022/04/23 02:20:11;;;;;;;25.25;19.58;;;10.60;99.90;;;;;;5135809;27;20194;-71
2022/04/23 02:22:38;;;;;;;22.65;18.27;;;10.50;99.90;;;;;;5116580;27;20198;-74
2022/04/23 02:25:06;;;;;;;19.83;17.63;;;10.40;99.90;;;;;;5135088;27;20664;-71
2022/04/23 02:27:46;;;;;;;20.70;18.55;;;10.50;99.90;;;;;;5135709;27;20194;-71
2022/04/23 02:30:14;;;;;;;23.98;19.25;;;10.40;99.90;;;;;;5134660;27;20212;-72
2022/04/23 02:32:42;;;;;;;22.27;19.88;;;10.40;99.90;;;;;;5134954;27;20198;-72
2022/04/23 02:35:10;;;;;;;26.35;21.15;;;10.30;99.90;;;;;;5134979;27;20198;-72
2022/04/23 02:37:36;;;;;;;23.05;20.20;;;10.30;99.90;;;;;;5116882;27;20193;-72
2022/04/23 02:40:04;;;;;;;23.65;21.15;;;10.20;99.90;;;;;;5134672;27;20198;-72
2022/04/23 02:42:30;;;;;;;23.25;19.77;;;10.20;99.90;;;;;;5134242;27;20205;-72
2022/04/23 02:45:03;;;;;;;21.85;19.65;;;10.10;99.90;;;;;;5134548;27;20197;-72
2022/04/23 02:47:40;;;;;;;30.77;19.98;;;10.10;99.90;;;;;;5099573;27;20194;-71
2022/04/23 02:50:07;;;;;;;25.08;20.17;;;10.10;99.90;;;;;;5134262;27;20665;-72
2022/04/23 02:52:33;;;;;;;23.35;20.95;;;10.10;99.90;;;;;;5133898;27;20198;-72
2022/04/23 02:55:00;;;;;;;26.75;20.00;;;10.00;99.90;;;;;;5134262;27;20198;-72
2022/04/23 02:57:26;;;;;;;21.48;18.83;;;9.90;99.90;;;;;;5134005;27;20229;-72
2022/04/23 02:59:52;;;;;;;22.52;19.92;;;9.80;99.90;;;;;;5134427;27;20201;-72
2022/04/23 03:02:19;;;;;;;21.77;18.83;;;9.80;99.90;;;;;;5133993;27;20208;-72
2022/04/23 03:04:46;;;;;;;22.73;19.92;;;9.80;99.90;;;;;;5133266;27;20202;-73
2022/04/23 03:07:12;;;;;;;19.83;17.75;;;9.80;99.90;;;;;;5133591;27;20222;-72
2022/04/23 03:09:38;;;;;;;19.45;16.92;;;9.90;99.90;;;;;;5133680;27;20232;-72
2022/04/23 03:12:05;;;;;;;22.02;18.85;;;9.80;99.90;;;;;;5134014;27;20221;-73
2022/04/23 03:14:32;;;;;;;20.42;18.13;;;9.80;99.90;;;;;;5133715;27;20607;-72
2022/04/23 03:16:58;;;;;;;24.27;19.73;;;9.80;99.90;;;;;;5114741;28;20641;-72
2022/04/23 03:19:25;;;;;;;23.52;19.67;;;9.80;99.90;;;;;;5115796;28;20225;-72
2022/04/23 03:21:51;;;;;;;23.75;20.52;;;9.70;99.90;;;;;;5133801;28;20649;-72
2022/04/23 03:24:18;;;;;;;21.48;18.80;;;9.70;99.90;;;;;;5138943;27;20198;-72
2022/04/23 03:26:46;;;;;;;22.95;19.38;;;9.70;99.90;;;;;;5138732;27;20201;-72
2022/04/23 03:29:12;;;;;;;21.10;18.95;;;9.70;99.90;;;;;;5119740;27;20202;-71
2022/04/23 03:31:38;;;;;;;27.42;19.40;;;9.70;99.90;;;;;;5138094;27;20203;-71
2022/04/23 03:34:05;;;;;;;22.85;19.75;;;9.60;99.90;;;;;;5137922;27;20680;-72
2022/04/23 03:36:31;;;;;;;23.10;19.52;;;9.60;99.90;;;;;;5139793;27;20221;-72
2022/04/23 03:38:58;;;;;;;22.48;19.20;;;9.60;99.90;;;;;;5140092;27;20198;-72
2022/04/23 03:41:25;;;;;;;22.98;20.02;;;9.50;99.90;;;;;;5142227;27;20771;-72
2022/04/23 03:44:01;;;;;;;23.90;19.33;;;9.50;99.90;;;;;;5139656;27;20238;-72
2022/04/23 03:46:31;;;;;;;21.20;18.13;;;9.50;99.90;;;;;;5138060;27;20206;-72
2022/04/23 03:48:58;;;;;;;23.85;20.38;;;9.40;99.90;;;;;;5138288;27;20202;-72
2022/04/23 03:51:28;;;;;;;25.63;19.48;;;9.40;99.90;;;;;;5137817;27;20217;-72
2022/04/23 03:53:55;;;;;;;23.20;20.05;;;9.40;99.90;;;;;;5137801;27;20213;-72
2022/04/23 03:56:21;;;;;;;26.55;20.00;;;9.30;99.90;;;;;;5137652;27;20224;-72
2022/04/23 03:58:48;;;;;;;22.30;19.90;;;9.30;99.90;;;;;;5136725;27;20265;-73
2022/04/23 04:01:15;;;;;;;23.08;20.73;;;9.30;99.90;;;;;;5118983;27;20205;-72
2022/04/23 04:03:41;;;;;;;24.55;20.10;;;9.30;99.90;;;;;;5137659;27;20198;-72
2022/04/23 04:06:07;;;;;;;24.80;21.25;;;9.30;99.90;;;;;;5137144;27;20226;-73
2022/04/23 04:08:34;;;;;;;22.80;20.30;;;9.30;99.90;;;;;;5137061;27;20824;-72
2022/04/23 04:11:00;;;;;;;23.17;19.38;;;9.30;99.90;;;;;;5137124;27;20579;-72
2022/04/23 04:13:27;;;;;;;22.55;20.13;;;9.30;99.90;;;;;;5137365;27;20529;-73
2022/04/23 04:15:53;;;;;;;24.10;20.17;;;9.20;99.90;;;;;;5136406;27;20210;-73
2022/04/23 04:18:21;;;;;;;22.35;19.38;;;9.30;99.90;;;;;;5136664;27;20680;-72
2022/04/23 04:20:53;;;;;;;24.80;19.38;;;9.30;99.90;;;;;;5137186;27;20198;-73
2022/04/23 04:23:20;;;;;;;25.98;21.40;;;9.20;99.90;;;;;;5136342;27;20202;-73
2022/04/23 04:25:47;;;;;;;23.90;19.58;;;9.20;99.90;;;;;;5137177;27;20240;-73
2022/04/23 04:28:14;;;;;;;24.60;20.73;;;9.20;99.90;;;;;;5136580;27;20194;-72
2022/04/23 04:33:25;;;;;;;24.40;20.83;;;9.20;99.90;;;;;;5121263;27;20182;-73
2022/04/23 04:35:51;;;;;;;27.35;20.05;;;9.20;99.90;;;;;;5135789;27;20691;-73
2022/04/23 04:38:18;;;;;;;27.13;21.25;;;9.20;99.90;;;;;;5139542;27;20224;-73
2022/04/23 04:40:44;;;;;;;24.58;20.85;;;9.20;99.90;;;;;;5120284;27;20194;-73
2022/04/23 04:43:11;;;;;;;23.42;20.90;;;9.20;99.90;;;;;;5136505;27;20206;-73
2022/04/23 04:45:55;;;;;;;24.83;20.83;;;9.20;99.90;;;;;;5136654;27;20277;-73
2022/04/23 04:48:23;;;;;;;23.45;21.00;;;9.20;99.90;;;;;;5116497;27;20205;-73
2022/04/23 04:50:49;;;;;;;22.88;20.52;;;9.20;99.90;;;;;;5137158;27;20194;-73
2022/04/23 04:53:16;;;;;;;22.75;20.35;;;9.20;99.90;;;;;;5136935;27;20205;-73
2022/04/23 04:55:42;;;;;;;23.65;20.48;;;9.20;99.90;;;;;;5136426;27;20197;-73
2022/04/23 04:58:09;;;;;;;24.08;20.23;;;9.30;99.90;;;;;;5118321;27;20220;-73
2022/04/23 05:00:35;;;;;;;22.90;20.42;;;9.30;99.90;;;;;;5136525;27;20195;-73
2022/04/23 05:03:01;;;;;;;23.02;20.58;;;9.30;99.90;;;;;;5137873;27;20198;-73
2022/04/23 05:05:37;;;;;;;25.17;22.48;;;9.40;99.90;;;;;;5136784;27;20224;-71
2022/04/23 05:08:04;;;;;;;22.17;18.80;;;9.40;99.90;;;;;;5136567;27;20207;-71
2022/04/23 05:10:30;;;;;;;23.00;20.35;;;9.50;99.90;;;;;;5095259;28;20195;-71
2022/04/23 05:13:06;;;;;;;24.48;20.15;;;9.60;99.90;;;;;;5096326;28;20709;-71
2022/04/23 05:15:39;;;;;;;22.80;20.42;;;9.60;99.90;;;;;;5095815;28;20188;-71
2022/04/23 05:18:06;;;;;;;21.88;19.50;;;9.60;99.90;;;;;;5098583;28;20230;-71
2022/04/23 05:20:32;;;;;;;26.98;19.92;;;9.70;99.90;;;;;;5096622;28;20209;-71
2022/04/23 05:23:44;;;;;;;23.10;20.70;;;9.70;99.90;;;;;;5097251;28;20226;-71
2022/04/23 05:26:41;;;;;;;21.25;19.05;;;9.70;99.90;;;;;;5092886;28;20280;-70
2022/04/23 05:29:13;;;;;;;21.20;19.08;;;9.80;99.90;;;;;;5091199;28;20727;-71
2022/04/23 05:31:40;;;;;;;21.27;19.02;;;9.90;99.90;;;;;;5095929;28;20271;-71
2022/04/23 05:34:07;;;;;;;21.35;19.10;;;10.00;99.90;;;;;;5094543;28;20291;-71
2022/04/23 05:36:33;;;;;;;21.88;19.52;;;10.10;99.90;;;;;;5095257;28;20229;-71
2022/04/23 05:39:00;;;;;;;19.77;17.48;;;10.20;99.90;;;;;;5095394;28;20225;-71
2022/04/23 05:41:27;;;;;;;23.33;19.63;;;10.20;99.90;;;;;;5095931;28;20611;-71
2022/04/23 05:43:53;;;;;;;21.60;19.42;;;10.20;99.90;;;;;;5094723;28;20211;-71
2022/04/23 05:46:20;;;;;;;24.55;19.08;;;10.20;99.90;;;;;;5094571;28;20242;-71
2022/04/23 05:48:53;;;;;;;21.15;18.83;;;10.20;99.90;;;;;;5094243;28;20555;-71
2022/04/23 05:51:23;;;;;;;23.83;18.02;;;10.20;99.90;;;;;;5097393;28;20199;-71
2022/04/23 05:53:50;;;;;;;19.65;17.65;;;10.20;99.90;;;;;;5096118;28;20578;-71
2022/04/23 05:56:16;;;;;;;21.70;19.50;;;10.30;99.90;;;;;;5094069;28;20207;-71
2022/04/23 05:58:42;;;;;;;23.50;18.17;;;10.40;99.90;;;;;;5095108;28;20202;-71
2022/04/23 06:01:09;;;;;;;19.20;17.20;;;10.40;99.90;;;;;;5095189;28;20199;-71
2022/04/23 06:03:35;;;;;;;19.25;17.25;;;10.50;99.90;;;;;;5094423;28;20253;-71
2022/04/23 06:06:03;;;;;;;20.30;18.30;;;10.60;99.90;;;;;;5098633;28;20215;-71
2022/04/23 06:08:30;;;;;;;17.52;15.73;;;10.70;99.90;;;;;;5101161;27;20230;-71
2022/04/23 06:10:56;;;;;;;20.52;18.40;;;10.70;99.90;;;;;;5135141;27;20198;-71
2022/04/23 06:13:22;;;;;;;19.52;17.63;;;10.80;99.90;;;;;;5137086;27;20561;-71
2022/04/23 06:15:49;;;;;;;18.30;16.50;;;10.90;99.90;;;;;;5134410;27;20603;-71
2022/04/23 06:18:15;;;;;;;20.50;18.40;;;10.90;99.90;;;;;;5135679;27;20213;-71
2022/04/23 06:20:54;;;;;;;19.40;17.35;;;11.00;99.90;;;;;;5116852;27;20198;-71
2022/04/23 06:23:21;;;;;;;19.88;17.05;;;10.90;99.90;;;;;;5136445;27;20566;-71
2022/04/23 06:25:53;;;;;;;18.83;16.95;;;11.00;99.90;;;;;;5134539;27;20198;-70
2022/04/23 06:28:22;;;;;;;17.15;15.52;;;11.10;99.90;;;;;;5136706;27;20543;-69
2022/04/23 06:30:57;;;;;;;17.73;15.98;;;11.10;99.90;;;;;;5134856;27;20197;-70
2022/04/23 06:33:27;;;;;;;18.80;17.00;;;11.10;99.90;;;;;;5136626;27;20646;-69
2022/04/23 06:35:56;;;;;;;18.17;16.27;;;11.20;99.90;;;;;;5135108;27;20533;-69
2022/04/23 06:38:22;;;;;;;16.13;14.48;;;11.30;99.90;;;;;;5135724;27;20197;-70
2022/04/23 06:40:49;;;;;;;17.00;15.30;;;11.50;99.90;;;;;;5136222;27;20685;-70
2022/04/23 06:43:15;;;;;;;15.68;14.07;;;11.40;99.90;;;;;;5136539;27;20194;-69
2022/04/23 06:45:42;;;;;;;16.15;13.95;;;11.50;99.90;;;;;;5115634;27;20197;-69
2022/04/23 06:48:09;;;;;;;14.25;12.75;;;11.60;99.90;;;;;;5117458;27;20225;-70
2022/04/23 06:50:44;;;;;;;15.75;14.18;;;11.80;99.90;;;;;;5134993;27;20194;-69
2022/04/23 06:53:11;;;;;;;12.05;10.85;;;11.90;99.90;;;;;;5116708;27;20191;-69
2022/04/23 06:55:38;;;;;;;12.23;11.15;;;11.70;99.90;;;;;;5134868;27;20205;-68
2022/04/23 06:58:04;;;;;;;12.35;11.05;;;11.70;99.90;;;;;;5116455;27;20239;-71
2022/04/23 07:00:31;;;;;;;11.80;10.80;;;11.90;99.90;;;;;;5133397;27;20201;-69
2022/04/23 07:02:57;;;;;;;11.98;10.88;;;11.90;99.90;;;;;;5115602;28;20213;-69
2022/04/23 07:05:27;;;;;;;11.40;10.40;;;11.70;99.90;;;;;;5137357;27;20285;-72
2022/04/23 07:07:58;;;;;;;11.50;10.50;;;11.80;99.90;;;;;;5135813;27;20218;-71
2022/04/23 07:10:27;;;;;;;11.63;10.55;;;11.90;99.90;;;;;;5134437;27;20289;-73
2022/04/23 07:12:54;;;;;;;11.55;10.55;;;11.90;99.90;;;;;;5134802;27;20514;-72
2022/04/23 07:15:21;;;;;;;12.25;11.15;;;12.10;99.90;;;;;;5116171;28;20198;-72
2022/04/23 07:17:57;;;;;;;11.25;10.18;;;12.20;99.90;;;;;;5133854;27;20212;-72
2022/04/23 07:20:24;;;;;;;11.10;10.07;;;12.20;99.90;;;;;;5133559;27;20193;-73
2022/04/23 07:25:36;;;;;;;10.13;9.17;;;12.20;99.90;;;;;;5118445;28;20192;-72
2022/04/23 07:28:04;;;;;;;12.18;10.25;;;12.30;99.90;;;;;;5136648;28;20652;-73
2022/04/23 07:30:31;;;;;;;11.07;10.07;;;12.30;99.90;;;;;;5116776;28;20200;-73
2022/04/23 07:32:58;;;;;;;12.95;10.52;;;12.10;99.90;;;;;;5133149;28;20208;-73
2022/04/23 07:38:20;;;;;;;11.15;10.15;;;12.10;99.90;;;;;;5135250;28;20258;-71
2022/04/23 07:40:48;;;;;;;11.60;10.43;;;12.10;99.90;;;;;;5116324;28;20281;-71
2022/04/23 07:43:16;;;;;;;13.40;10.40;;;12.20;99.90;;;;;;5133693;28;20202;-71
2022/04/23 07:45:44;;;;;;;11.38;10.27;;;12.20;99.90;;;;;;5132316;28;20227;-71
2022/04/23 07:48:12;;;;;;;10.20;9.30;;;12.20;99.90;;;;;;5133174;28;20218;-71
2022/04/23 07:50:41;;;;;;;11.30;10.20;;;12.30;99.90;;;;;;5114577;28;20676;-71
2022/04/23 07:53:09;;;;;;;13.52;9.80;;;12.50;99.90;;;;;;5114764;28;20724;-71
2022/04/23 07:55:38;;;;;;;10.35;9.45;;;12.60;99.90;;;;;;5133669;28;20247;-72
2022/04/23 07:58:05;;;;;;;11.85;9.45;;;12.50;99.90;;;;;;5132673;28;20205;-72
2022/04/23 08:00:34;;;;;;;10.87;9.97;;;12.50;99.90;;;;;;5133260;28;20540;-72
2022/04/23 08:03:05;;;;;;;11.87;10.87;;;12.70;99.90;;;;;;5134096;28;20642;-71
2022/04/23 08:05:32;;;;;;;11.23;10.10;;;12.70;99.90;;;;;;5134640;27;20628;-71
2022/04/23 08:08:01;;;;;;;11.07;9.90;;;12.80;99.90;;;;;;5134568;28;20225;-71
2022/04/23 08:10:27;;;;;;;10.70;9.80;;;12.80;99.90;;;;;;5133085;27;20654;-71
2022/04/23 08:12:55;;;;;;;9.47;8.67;;;13.10;99.90;;;;;;5121944;27;20604;-71
2022/04/23 08:15:36;;;;;;;10.57;9.57;;;13.30;99.90;;;;;;5134523;27;20590;-71
2022/04/23 08:18:03;;;;;;;10.73;9.40;;;13.20;99.90;;;;;;5137307;27;20967;-71
2022/04/23 08:20:32;;;;;;;10.43;9.53;;;13.30;99.90;;;;;;5119427;27;20964;-71
2022/04/23 08:23:03;;;;;;;9.90;9.10;;;13.10;99.90;;;;;;5120380;27;20627;-71
2022/04/23 08:25:29;;;;;;;10.20;9.27;;;13.00;99.90;;;;;;5136999;27;20607;-71
2022/04/23 08:30:47;;;;;;;14.60;9.27;;;13.30;99.90;;;;;;5137144;27;20576;-71
2022/04/23 08:33:16;;;;;;;10.60;9.67;;;13.40;99.90;;;;;;5118539;27;20619;-72
2022/04/23 08:35:42;;;;;;;9.63;8.90;;;13.70;99.90;;;;;;5136860;27;20599;-71
2022/04/23 08:38:10;;;;;;;9.07;8.27;;;13.40;99.90;;;;;;5139954;27;20586;-71
2022/04/23 08:40:43;;;;;;;9.70;8.80;;;13.40;99.90;;;;;;5136702;27;20572;-71
2022/04/23 08:43:11;;;;;;;9.17;8.37;;;13.60;99.90;;;;;;5118102;27;20642;-71
2022/04/23 08:45:39;;;;;;;9.47;8.77;;;13.90;99.90;;;;;;5136980;27;20604;-71
2022/04/23 08:48:11;;;;;;;9.00;8.20;;;14.20;99.90;;;;;;5136572;27;21248;-71
2022/04/23 08:50:39;;;;;;;8.80;8.10;;;14.30;99.90;;;;;;5118799;27;20652;-71
2022/04/23 08:53:17;;;;;;;9.53;8.70;;;14.40;99.90;;;;;;5136553;27;20575;-71
2022/04/23 08:55:45;;;;;;;9.23;8.33;;;14.20;99.90;;;;;;5135931;27;20622;-71
2022/04/23 08:58:15;;;;;;;9.20;8.30;;;14.30;99.90;;;;;;5117709;27;21194;-71
2022/04/23 09:00:41;;;;;;;8.80;8.10;;;14.40;99.90;;;;;;5135966;27;21176;-71
2022/04/23 09:03:16;;;;;;;9.90;9.10;;;14.30;99.90;;;;;;5136185;27;20616;-71
2022/04/23 09:05:43;;;;;;;8.47;7.77;;;14.50;99.90;;;;;;5135848;27;21099;-71
2022/04/23 09:08:10;;;;;;;8.33;7.73;;;14.50;99.90;;;;;;5117020;27;20659;-71
2022/04/23 09:10:44;;;;;;;10.50;9.00;;;14.30;99.90;;;;;;5135803;27;20953;-71
2022/04/23 09:13:11;;;;;;;8.63;7.83;;;14.80;99.90;;;;;;5135802;27;20972;-71
2022/04/23 09:24:10;;;;;;;9.60;8.60;;;14.90;99.90;;;;;;5135203;27;20580;-71
2022/04/23 09:26:40;;;;;;;9.17;8.33;;;15.00;99.90;;;;;;5135761;27;20601;-71
2022/04/23 09:29:15;;;;;;;10.90;8.90;;;15.40;99.90;;;;;;5135548;27;20581;-71
2022/04/23 09:31:42;;;;;;;9.57;8.77;;;15.10;99.90;;;;;;5135204;27;20969;-71
2022/04/23 09:34:16;;;;;;;9.03;8.30;;;15.30;99.90;;;;;;5135473;27;20604;-71
2022/04/23 09:37:00;;;;;;;9.27;8.37;;;15.00;99.90;;;;;;5135129;27;20619;-71
2022/04/23 09:39:38;;;;;;;9.23;7.80;;;15.40;99.90;;;;;;5135670;27;20576;-71
2022/04/23 09:42:15;;;;;;;8.10;7.37;;;15.70;99.90;;;;;;5134546;27;20623;-71
2022/04/23 09:44:43;;;;;;;9.57;7.63;;;15.70;99.90;;;;;;5135649;27;20574;-72
2022/04/23 09:47:09;;;;;;;6.90;6.30;;;15.60;99.90;;;;;;5135376;27;20647;-71
2022/04/23 09:49:38;;;;;;;6.50;5.90;;;15.70;99.90;;;;;;5135062;27;20600;-71
2022/04/23 09:52:09;;;;;;;7.70;7.10;;;15.80;99.90;;;;;;5135038;27;20665;-71
2022/04/23 09:54:38;;;;;;;6.33;5.93;;;15.70;99.90;;;;;;5134279;27;20612;-72
2022/04/23 09:57:05;;;;;;;5.83;5.27;;;15.90;99.90;;;;;;5134852;27;21184;-72
2022/04/23 09:59:31;;;;;;;6.77;6.27;;;15.60;99.90;;;;;;5135211;27;20603;-71
2022/04/23 10:01:58;;;;;;;6.47;6.00;;;15.80;99.90;;;;;;5134445;27;20624;-71
2022/04/23 10:04:27;;;;;;;5.87;5.47;;;15.80;99.90;;;;;;5134197;27;20615;-71
2022/04/23 10:06:56;;;;;;;5.97;5.57;;;16.00;99.90;;;;;;5134244;27;20647;-71
2022/04/23 10:09:30;;;;;;;6.03;5.57;;;16.10;99.90;;;;;;5134759;27;20640;-71
2022/04/23 10:12:08;;;;;;;5.80;5.20;;;15.90;99.90;;;;;;5134847;27;21094;-71
2022/04/23 10:14:48;;;;;;;5.67;5.27;;;16.00;99.90;;;;;;5134869;27;20932;-71
2022/04/23 10:17:17;;;;;;;7.87;5.10;;;15.90;99.90;;;;;;5134746;27;20590;-72
2022/04/23 10:19:44;;;;;;;7.80;4.80;;;16.20;99.90;;;;;;5134346;27;20607;-71
2022/04/23 10:22:21;;;;;;;5.70;5.30;;;16.40;99.90;;;;;;5133877;27;20632;-71
2022/04/23 10:24:57;;;;;;;5.73;4.50;;;16.10;99.90;;;;;;5134568;27;20587;-71
2022/04/23 10:27:28;;;;;;;5.10;4.70;;;16.30;99.90;;;;;;5134411;27;20956;-71
2022/04/23 10:30:02;;;;;;;7.30;5.17;;;16.60;99.90;;;;;;5136055;27;20551;-71
2022/04/23 10:32:40;;;;;;;6.43;5.83;;;16.70;99.90;;;;;;5118285;27;20612;-71
2022/04/23 10:35:18;;;;;;;6.83;5.30;;;16.20;99.90;;;;;;5134342;27;20583;-72
2022/04/23 10:37:50;;;;;;;5.50;5.10;;;16.50;99.90;;;;;;5135958;27;21062;-73
2022/04/23 10:40:18;;;;;;;5.47;5.00;;;16.50;99.90;;;;;;5134394;27;20624;-73
2022/04/23 10:43:12;;;;;;;5.20;4.90;;;16.40;99.90;;;;;;5134177;27;20631;-73
2022/04/23 10:45:42;;;;;;;4.90;4.70;;;16.70;99.90;;;;;;5115908;27;20603;-73
2022/04/23 10:48:26;;;;;;;10.63;4.50;;;16.30;99.90;;;;;;5117225;27;21309;-73
2022/04/23 10:51:01;;;;;;;5.10;4.80;;;16.20;99.90;;;;;;5135290;27;20741;-73
2022/04/23 10:53:50;;;;;;;5.57;5.17;;;16.00;99.90;;;;;;5136304;27;20607;-73
2022/04/23 10:56:19;;;;;;;5.20;4.80;;;16.70;99.90;;;;;;5135649;27;21181;-73
2022/04/23 10:58:46;;;;;;;5.23;4.90;;;16.60;99.90;;;;;;5133749;27;21165;-72
2022/04/23 11:01:23;;;;;;;5.83;5.33;;;16.40;99.90;;;;;;5134714;27;21013;-72
2022/04/23 11:03:57;;;;;;;5.10;4.87;;;16.30;99.90;;;;;;5133729;27;20623;-72
2022/04/23 11:12:56;;;;;;;5.40;4.97;;;16.40;99.90;;;;;;5031231;28;20585;-73
2022/04/23 11:15:23;;;;;;;8.97;5.10;;;16.70;99.90;;;;;;5030604;28;20616;-72
2022/04/23 11:18:25;;;;;;;5.23;4.83;;;16.40;99.90;;;;;;5108384;27;20612;-73
2022/04/23 11:21:12;;;;;;;5.83;4.80;;;16.30;99.90;;;;;;5134982;27;21132;-73
2022/04/23 11:23:45;;;;;;;6.63;6.23;;;16.20;99.90;;;;;;5135057;27;20586;-73
2022/04/23 11:26:13;;;;;;;5.40;5.10;;;15.90;99.90;;;;;;5133956;28;21118;-73
2022/04/23 11:28:44;;;;;;;6.40;5.80;;;15.80;99.90;;;;;;5134503;28;20659;-73
2022/04/23 11:31:16;;;;;;;5.40;5.00;;;16.20;99.90;;;;;;5134236;28;20667;-73
2022/04/23 11:33:50;;;;;;;5.23;4.93;;;16.00;99.90;;;;;;5133870;28;20679;-73
2022/04/23 11:36:18;;;;;;;4.73;4.43;;;15.90;99.90;;;;;;5133976;28;20622;-73
2022/04/23 11:39:00;;;;;;;4.87;4.60;;;15.80;99.90;;;;;;5135298;28;20608;-73
2022/04/23 11:41:47;;;;;;;5.10;4.80;;;15.90;99.90;;;;;;5128294;28;21265;-73
2022/04/23 11:44:16;;;;;;;5.30;4.87;;;16.10;99.90;;;;;;5134698;28;20888;-73
2022/04/23 11:46:53;;;;;;;5.20;4.70;;;16.10;99.90;;;;;;5137120;27;20596;-73
2022/04/23 11:49:29;;;;;;;4.27;4.00;;;16.10;99.90;;;;;;5137526;27;20631;-73
2022/04/23 11:55:21;;;;;;;5.07;4.60;;;15.90;99.90;;;;;;5137668;27;20662;-73
2022/04/23 11:57:56;;;;;;;4.30;4.10;;;15.90;99.90;;;;;;5137089;27;20625;-73
2022/04/23 12:00:24;;;;;;;4.63;4.43;;;15.80;99.90;;;;;;5138129;27;20620;-73
2022/04/23 12:02:51;;;;;;;8.93;5.30;;;15.90;99.90;;;;;;5138221;27;21298;-73
2022/04/23 12:06:05;;;;;;;4.07;3.77;;;15.90;99.90;;;;;;5137444;27;20999;-73
2022/04/23 12:08:32;;;;;;;4.70;4.40;;;15.80;99.90;;;;;;5115327;27;20671;-73
2022/04/23 12:11:28;;;;;;;4.27;3.93;;;15.90;99.90;;;;;;5138103;27;21103;-73
2022/04/23 12:13:55;;;;;;;4.20;3.90;;;16.00;99.90;;;;;;5095772;27;20627;-73
2022/04/23 12:16:58;;;;;;;4.00;3.80;;;15.80;99.90;;;;;;5138313;27;20658;-73
2022/04/23 12:19:32;;;;;;;4.03;3.83;;;16.20;99.90;;;;;;5135855;27;20612;-71
2022/04/23 12:21:58;;;;;;;3.90;3.70;;;16.70;99.90;;;;;;5136813;27;21001;-74
2022/04/23 12:24:35;;;;;;;3.97;3.77;;;17.50;99.90;;;;;;5136959;27;20604;-71
2022/04/23 12:27:05;;;;;;;4.17;3.87;;;17.60;99.90;;;;;;5136683;27;20602;-71
2022/04/23 12:40:46;;;;;;;11.43;3.83;;;16.80;99.90;;;;;;5140573;27;20602;-72
2022/04/23 12:43:28;;;;;;;9.73;3.70;;;16.50;99.90;;;;;;5136320;27;20603;-72
2022/04/23 12:46:08;;;;;;;4.07;3.77;;;16.80;99.90;;;;;;5136330;27;20611;-72
2022/04/23 12:49:00;;;;;;;4.60;4.40;;;16.90;99.90;;;;;;5135880;27;20663;-72
2022/04/23 12:51:27;;;;;;;4.93;4.63;;;16.90;99.90;;;;;;5136569;27;20580;-72
2022/04/23 12:53:53;;;;;;;4.80;4.50;;;17.10;99.90;;;;;;5136347;27;20617;-72
2022/04/23 12:56:31;;;;;;;5.60;4.43;;;16.60;99.90;;;;;;5136537;27;20612;-72
2022/04/23 12:58:58;;;;;;;5.37;5.00;;;16.60;99.90;;;;;;5134926;27;20695;-72
2022/04/23 13:01:24;;;;;;;4.63;4.43;;;16.50;99.90;;;;;;5136460;27;20608;-72
2022/04/23 13:03:51;;;;;;;4.80;4.50;;;16.40;99.90;;;;;;5136845;27;20648;-72
2022/04/23 13:09:02;;;;;;;5.83;5.43;;;16.80;99.90;;;;;;5114337;28;20668;-72
2022/04/23 13:11:29;;;;;;;5.47;5.03;;;17.10;99.90;;;;;;5116419;28;20605;-73
2022/04/23 13:14:05;;;;;;;4.90;4.60;;;16.70;99.90;;;;;;5115714;28;20600;-72
2022/04/23 13:16:34;;;;;;;6.03;5.63;;;16.20;99.90;;;;;;5115652;28;20618;-72
2022/04/23 13:19:03;;;;;;;7.93;5.17;;;16.30;99.90;;;;;;5115633;28;20612;-72
2022/04/23 13:21:32;;;;;;;5.23;4.83;;;16.70;99.90;;;;;;5113569;28;20613;-72
2022/04/23 13:23:59;;;;;;;5.97;5.50;;;17.00;99.90;;;;;;5115178;28;20685;-72
2022/04/23 13:26:28;;;;;;;5.63;5.13;;;17.00;99.90;;;;;;5114809;28;20985;-72
2022/04/23 13:28:55;;;;;;;6.07;5.23;;;16.60;99.90;;;;;;5114506;28;20668;-72
2022/04/23 13:31:22;;;;;;;5.83;5.40;;;16.80;99.90;;;;;;5114322;27;20650;-72
2022/04/23 13:33:48;;;;;;;5.80;5.30;;;16.50;99.90;;;;;;5115063;28;21176;-72